Arnold, Maryland
Current Conditions -  °F | °C
As of 3:54 PM on Tuesday 21 Oct 2014 (Local Time) from KNAK Reporting Station
Clear Clear  
Wind Chill: 65°   Ceiling: Unl
Heat Index: 65°   Visibility: 10mi
Dew Point: 51°   Wind: 5mph
Humidity: 61%   Direction: 140°SE
Pressure: 29.81"   Gusts: NA
Location:  39.03°N, 76.51°W
Report Text: KNAK 211954Z AUTO 14004KT 10SM CLR 18/11 A2981 RMK AO2 SLP095 T01830106
Loading
Personal Weather Stations






























Interactive Weather Map
Tropical Storm Tracking
New forecast layout! Learn more

10-Day Weather Forecast

Advertisements
Track Severe Weather on mobile